Time;durP1;ratioP1;P1;durP2;ratioP2;P2;SDS_P1;SDS_P2;PMS_P1;PMS_P2;Temp;Humidity;BMP_temperature;BMP_pressure;BME280_temperature;BME280_humidity;BME280_pressure;Samples;Min_cycle;Max_cycle;Signal;HPM_P1;HPM_P2
2023/04/12 00:01:06;;;;;;;5.83;1.33;;;9.50;99.90;;;;;;7286991;19;20191;-77
2023/04/12 00:03:33;;;;;;;6.37;1.23;;;9.50;99.90;;;;;;7286997;19;20189;-77
2023/04/12 00:06:02;;;;;;;9.33;1.40;;;9.60;99.90;;;;;;7309946;19;20239;-78
2023/04/12 00:08:32;;;;;;;4.33;0.90;;;9.70;99.90;;;;;;7287757;19;20213;-78
2023/04/12 00:10:59;;;;;;;5.80;1.10;;;9.70;99.90;;;;;;7288934;19;20682;-77
2023/04/12 00:13:25;;;;;;;4.17;0.97;;;9.60;99.90;;;;;;7288715;19;20181;-77
2023/04/12 00:15:50;;;;;;;9.00;1.10;;;9.70;99.90;;;;;;7285819;19;20668;-77
2023/04/12 00:18:16;;;;;;;5.00;1.20;;;9.60;99.90;;;;;;7288344;19;20193;-78
2023/04/12 00:20:42;;;;;;;7.10;1.10;;;9.60;99.90;;;;;;7288051;19;20188;-77
2023/04/12 00:23:12;;;;;;;5.03;1.13;;;9.50;99.90;;;;;;7289723;19;20276;-77
2023/04/12 00:25:38;;;;;;;7.13;1.20;;;9.50;99.90;;;;;;7288464;19;20212;-78
2023/04/12 00:28:04;;;;;;;7.30;1.30;;;9.50;99.90;;;;;;7288451;19;20189;-77
2023/04/12 00:30:30;;;;;;;7.77;1.50;;;9.40;99.90;;;;;;7292677;19;20216;-76
2023/04/12 00:32:56;;;;;;;7.97;1.57;;;9.40;99.90;;;;;;7308576;19;20187;-77
2023/04/12 00:35:25;;;;;;;6.63;1.23;;;9.30;99.90;;;;;;7289142;19;20188;-78
2023/04/12 00:37:50;;;;;;;6.30;1.30;;;9.30;99.90;;;;;;7287325;19;20189;-78
2023/04/12 00:40:16;;;;;;;7.57;1.43;;;9.30;99.90;;;;;;7285826;19;20256;-78
2023/04/12 00:42:42;;;;;;;6.13;1.20;;;9.30;99.90;;;;;;7289472;19;20679;-78
2023/04/12 00:45:08;;;;;;;3.53;1.17;;;9.30;99.90;;;;;;7287002;19;20582;-77
2023/04/12 00:47:36;;;;;;;6.23;1.40;;;9.30;99.90;;;;;;7287221;19;20196;-78
2023/04/12 00:50:03;;;;;;;4.00;1.20;;;9.30;99.90;;;;;;7287634;19;20222;-78
2023/04/12 00:52:33;;;;;;;5.70;1.30;;;9.30;99.90;;;;;;7293942;19;20655;-77
2023/04/12 00:55:02;;;;;;;7.83;1.60;;;9.40;99.90;;;;;;7310310;19;20809;-77
2023/04/12 00:57:33;;;;;;;4.53;1.07;;;9.40;99.90;;;;;;7287652;19;20184;-78
2023/04/12 00:59:58;;;;;;;6.77;1.50;;;9.40;99.90;;;;;;7286612;19;20184;-76
2023/04/12 01:02:25;;;;;;;7.83;1.70;;;9.30;99.90;;;;;;7297726;19;20663;-78
2023/04/12 01:04:52;;;;;;;6.57;1.40;;;9.30;99.90;;;;;;7283842;19;20195;-78
2023/04/12 01:07:32;;;;;;;9.00;1.37;;;9.30;99.90;;;;;;7287647;19;20199;-78
2023/04/12 01:10:25;;;;;;;6.63;1.50;;;9.40;99.90;;;;;;7288350;19;20653;-78
2023/04/12 01:13:08;;;;;;;8.57;1.47;;;9.40;99.90;;;;;;7183348;19;2004404;-78
2023/04/12 01:15:38;;;;;;;6.57;1.60;;;9.30;99.90;;;;;;7183930;19;2004577;-78
2023/04/12 01:18:11;;;;;;;7.77;1.70;;;9.30;99.90;;;;;;7284859;19;20209;-77
2023/04/12 01:21:11;;;;;;;6.70;1.40;;;9.20;99.90;;;;;;7285205;19;20208;-78
2023/04/12 01:24:03;;;;;;;4.87;1.63;;;9.30;99.90;;;;;;7182048;19;2004594;-78
2023/04/12 01:26:43;;;;;;;4.87;1.60;;;9.30;99.90;;;;;;7285596;19;20199;-77
2023/04/12 01:29:15;;;;;;;5.47;1.40;;;9.30;99.90;;;;;;7284755;19;20228;-78
2023/04/12 01:31:53;;;;;;;6.40;1.60;;;9.30;99.90;;;;;;7285875;19;20195;-78
2023/04/12 01:34:23;;;;;;;5.33;1.37;;;9.30;99.90;;;;;;7283851;19;20284;-78
2023/04/12 01:36:50;;;;;;;7.07;1.90;;;9.30;99.90;;;;;;7285301;19;21910;-78
2023/04/12 01:39:16;;;;;;;7.80;1.67;;;9.30;99.90;;;;;;7284860;19;20195;-78
2023/04/12 01:41:44;;;;;;;5.10;1.37;;;9.30;99.90;;;;;;7285900;19;20210;-78
2023/04/12 01:44:14;;;;;;;4.63;1.40;;;9.30;99.90;;;;;;7284252;19;20200;-77
2023/04/12 01:53:37;;;;;;;6.20;1.40;;;9.40;99.90;;;;;;7182355;19;2004757;-78
2023/04/12 01:56:07;;;;;;;5.70;1.30;;;9.40;99.90;;;;;;7262435;19;20540;-77
2023/04/12 01:58:34;;;;;;;4.97;1.27;;;9.40;99.90;;;;;;7285090;19;20615;-78
2023/04/12 02:01:01;;;;;;;5.57;1.50;;;9.40;99.90;;;;;;7298293;19;20186;-77
2023/04/12 02:03:31;;;;;;;4.57;1.30;;;9.50;99.90;;;;;;7305330;19;20199;-78
2023/04/12 02:05:58;;;;;;;5.73;1.50;;;9.50;99.90;;;;;;7284300;19;20628;-78
2023/04/12 02:08:24;;;;;;;4.73;1.27;;;9.60;99.90;;;;;;7284800;19;20551;-78
2023/04/12 02:10:51;;;;;;;8.50;1.43;;;9.60;99.90;;;;;;7282949;19;20185;-78
2023/04/12 02:13:17;;;;;;;4.57;1.30;;;9.60;99.90;;;;;;7283523;19;20202;-78
2023/04/12 02:15:43;;;;;;;6.10;1.27;;;9.60;99.90;;;;;;7282594;19;20242;-78
2023/04/12 02:18:10;;;;;;;3.83;1.20;;;9.60;99.90;;;;;;7282850;19;20192;-78
2023/04/12 02:20:37;;;;;;;2.50;0.90;;;9.60;99.90;;;;;;7283152;19;20181;-78
2023/04/12 02:23:02;;;;;;;7.97;1.30;;;9.60;99.90;;;;;;7281754;19;20195;-77
2023/04/12 02:25:28;;;;;;;5.67;1.40;;;9.60;99.90;;;;;;7303219;19;20191;-77
2023/04/12 02:27:54;;;;;;;5.53;1.33;;;9.60;99.90;;;;;;7285545;19;20216;-78
2023/04/12 02:30:21;;;;;;;5.43;1.50;;;9.60;99.90;;;;;;7282185;19;20184;-78
2023/04/12 02:32:52;;;;;;;4.60;1.30;;;9.70;99.90;;;;;;7281695;19;20205;-78
2023/04/12 02:35:25;;;;;;;7.87;1.53;;;9.70;99.90;;;;;;7283951;19;20180;-78
2023/04/12 02:37:56;;;;;;;6.60;1.40;;;9.70;99.90;;;;;;7283178;19;20184;-78
2023/04/12 02:40:27;;;;;;;7.93;1.20;;;9.80;99.90;;;;;;7283584;19;20189;-78
2023/04/12 02:42:54;;;;;;;3.77;1.10;;;9.80;99.90;;;;;;7281947;19;20212;-78
2023/04/12 02:45:22;;;;;;;5.83;1.23;;;9.90;99.90;;;;;;7273756;19;20223;-78
2023/04/12 02:47:48;;;;;;;5.67;1.40;;;9.90;99.90;;;;;;7282382;19;21004;-78
2023/04/12 02:50:16;;;;;;;5.10;1.10;;;10.00;99.90;;;;;;7282539;19;20192;-78
2023/04/12 02:52:51;;;;;;;7.43;1.57;;;10.00;99.90;;;;;;7282645;19;20177;-78
2023/04/12 02:55:16;;;;;;;7.23;1.40;;;10.00;99.90;;;;;;7283557;19;20279;-78
2023/04/12 02:57:46;;;;;;;5.37;1.13;;;10.00;99.90;;;;;;7282075;19;20193;-77
2023/04/12 03:00:15;;;;;;;4.57;1.17;;;10.10;99.90;;;;;;7282632;19;20224;-78
2023/04/12 03:02:44;;;;;;;5.40;1.20;;;10.00;99.90;;;;;;7285331;19;20189;-78
2023/04/12 03:05:18;;;;;;;4.57;1.23;;;10.00;99.90;;;;;;7289075;19;20199;-77
2023/04/12 03:07:44;;;;;;;5.40;1.20;;;10.00;99.90;;;;;;7287882;19;20206;-76
2023/04/12 03:10:30;;;;;;;5.73;1.10;;;10.00;99.90;;;;;;7276245;19;20725;-76
2023/04/12 03:13:01;;;;;;;4.80;1.30;;;10.00;99.90;;;;;;7292892;19;20200;-77
2023/04/12 03:15:51;;;;;;;7.47;1.50;;;10.10;99.90;;;;;;7288043;19;20207;-76
2023/04/12 03:18:22;;;;;;;4.27;1.30;;;9.90;99.90;;;;;;7287881;19;20195;-76
2023/04/12 03:20:53;;;;;;;3.27;1.30;;;9.90;99.90;;;;;;7288274;19;20258;-77
2023/04/12 03:23:19;;;;;;;6.33;1.40;;;10.00;99.90;;;;;;7287690;19;20643;-76
2023/04/12 03:25:50;;;;;;;2.67;1.17;;;10.00;99.90;;;;;;7289189;19;20651;-78
2023/04/12 03:28:29;;;;;;;5.07;1.40;;;10.00;99.90;;;;;;7290443;19;20192;-78
2023/04/12 03:30:56;;;;;;;3.97;1.40;;;10.00;99.90;;;;;;7289065;19;20280;-78
2023/04/12 03:33:26;;;;;;;4.00;1.20;;;10.00;99.90;;;;;;7289068;19;20193;-78
2023/04/12 03:35:57;;;;;;;8.20;1.30;;;10.10;99.90;;;;;;7288663;19;20264;-78
2023/04/12 03:38:23;;;;;;;2.97;1.03;;;10.00;99.90;;;;;;7288435;19;20287;-78
2023/04/12 03:40:50;;;;;;;2.93;0.97;;;10.10;99.90;;;;;;7290402;19;20230;-78
2023/04/12 03:43:21;;;;;;;2.43;1.00;;;10.10;99.90;;;;;;7288736;19;20201;-78
2023/04/12 03:45:47;;;;;;;4.73;1.13;;;10.00;99.90;;;;;;7288939;19;20217;-78
2023/04/12 03:48:13;;;;;;;3.53;1.17;;;10.00;99.90;;;;;;7288792;19;20201;-78
2023/04/12 03:50:44;;;;;;;4.63;1.30;;;10.10;99.90;;;;;;7288251;19;20195;-78
2023/04/12 03:53:15;;;;;;;5.57;1.10;;;10.20;99.90;;;;;;7288068;19;20193;-78
2023/04/12 03:55:44;;;;;;;4.83;1.23;;;10.10;99.90;;;;;;7287199;19;20200;-78
2023/04/12 03:58:12;;;;;;;3.40;1.10;;;10.10;99.90;;;;;;7287565;19;20204;-78
2023/04/12 04:00:41;;;;;;;4.13;1.30;;;10.10;99.90;;;;;;7288041;19;20220;-79
2023/04/12 04:03:08;;;;;;;4.70;1.07;;;10.10;99.90;;;;;;7286781;19;20213;-78
2023/04/12 04:05:41;;;;;;;5.80;1.27;;;10.10;99.90;;;;;;7288417;19;20573;-78
2023/04/12 04:08:07;;;;;;;5.27;1.10;;;10.10;99.90;;;;;;7288822;19;21687;-78
2023/04/12 04:10:47;;;;;;;2.27;1.20;;;10.10;99.90;;;;;;7287779;19;20181;-78
2023/04/12 04:13:14;;;;;;;3.50;0.97;;;10.10;99.90;;;;;;7287027;19;20189;-78
2023/04/12 04:15:40;;;;;;;4.80;1.20;;;10.20;99.90;;;;;;7286218;19;20193;-78
2023/04/12 04:18:05;;;;;;;4.33;1.00;;;10.30;99.90;;;;;;7287686;19;20212;-79
2023/04/12 04:20:31;;;;;;;4.63;1.60;;;10.40;99.90;;;;;;7289845;19;20185;-79
2023/04/12 04:22:57;;;;;;;5.27;1.17;;;10.40;99.90;;;;;;7308793;19;20191;-79
2023/04/12 04:25:28;;;;;;;4.37;1.30;;;10.40;99.90;;;;;;7287142;19;20806;-79
2023/04/12 04:27:58;;;;;;;3.40;0.87;;;10.30;99.90;;;;;;7287880;19;20250;-80
2023/04/12 04:30:26;;;;;;;4.37;1.23;;;10.30;99.90;;;;;;7286610;19;20186;-79
2023/04/12 04:32:52;;;;;;;3.07;1.10;;;10.20;99.90;;;;;;7286621;19;20259;-79
2023/04/12 04:35:22;;;;;;;3.80;1.03;;;10.20;99.90;;;;;;7286993;19;20178;-79
2023/04/12 04:38:25;;;;;;;2.83;0.93;;;10.30;99.90;;;;;;7184327;19;2004375;-79
2023/04/12 04:40:52;;;;;;;4.63;1.20;;;10.40;99.90;;;;;;7288584;19;20185;-79
2023/04/12 04:43:21;;;;;;;2.27;1.00;;;10.30;99.90;;;;;;7285153;19;20495;-79
2023/04/12 04:45:50;;;;;;;2.00;1.00;;;10.40;99.90;;;;;;7287380;19;20185;-79
2023/04/12 04:48:17;;;;;;;3.87;1.00;;;10.40;99.90;;;;;;7286826;19;20704;-79
2023/04/12 04:50:43;;;;;;;3.43;1.10;;;10.40;99.90;;;;;;7285843;19;20190;-79
2023/04/12 04:53:10;;;;;;;4.97;0.87;;;10.50;99.90;;;;;;7286856;19;20232;-79
2023/04/12 04:55:36;;;;;;;3.13;1.10;;;10.50;99.90;;;;;;7286807;19;20196;-79
2023/04/12 04:58:01;;;;;;;3.10;0.83;;;10.60;99.90;;;;;;7287750;19;20224;-78
2023/04/12 05:00:27;;;;;;;5.60;1.47;;;10.60;99.90;;;;;;7310211;19;20188;-79
2023/04/12 05:02:55;;;;;;;4.73;1.40;;;10.70;99.90;;;;;;7285460;19;20276;-78
2023/04/12 05:05:24;;;;;;;4.87;1.20;;;10.80;99.90;;;;;;7285901;19;20190;-79
2023/04/12 05:07:57;;;;;;;8.63;1.20;;;10.90;99.90;;;;;;7287638;19;20190;-79
2023/04/12 05:10:24;;;;;;;6.83;1.77;;;10.90;99.90;;;;;;7283931;19;20611;-79
2023/04/12 05:12:51;;;;;;;5.97;1.43;;;10.90;99.90;;;;;;7286711;19;20185;-79
2023/04/12 05:15:18;;;;;;;7.00;1.60;;;10.80;99.90;;;;;;7285492;19;20196;-79
2023/04/12 05:17:44;;;;;;;12.20;1.90;;;10.80;99.90;;;;;;7283611;19;20185;-79
2023/04/12 05:20:10;;;;;;;12.50;1.73;;;10.90;99.90;;;;;;7285059;19;20542;-79
2023/04/12 05:22:37;;;;;;;11.97;2.27;;;10.90;99.90;;;;;;7284207;19;20645;-79
2023/04/12 05:25:03;;;;;;;11.23;1.97;;;10.80;99.90;;;;;;7283859;19;20316;-78
2023/04/12 05:27:33;;;;;;;9.37;1.53;;;10.90;99.90;;;;;;7273214;19;20181;-78
2023/04/12 05:30:00;;;;;;;11.10;1.73;;;10.90;99.90;;;;;;7303477;19;20217;-77
2023/04/12 05:32:26;;;;;;;10.20;1.60;;;10.90;99.90;;;;;;7295316;19;20553;-79
2023/04/12 05:34:52;;;;;;;10.67;1.93;;;10.90;99.90;;;;;;7282259;19;20198;-80
2023/04/12 05:37:20;;;;;;;13.17;1.87;;;11.00;99.90;;;;;;7284732;19;20193;-79
2023/04/12 05:39:46;;;;;;;15.43;1.90;;;11.00;99.90;;;;;;7284394;19;20196;-79
2023/04/12 05:42:14;;;;;;;8.77;1.90;;;11.00;99.90;;;;;;7285359;19;20631;-80
2023/04/12 05:44:40;;;;;;;13.93;2.07;;;11.00;99.90;;;;;;7283469;19;20575;-80
2023/04/12 05:47:11;;;;;;;9.90;2.00;;;11.00;99.90;;;;;;7282393;19;20184;-81
2023/04/12 05:49:37;;;;;;;9.93;1.63;;;11.10;99.90;;;;;;7284069;19;20198;-81
2023/04/12 05:52:06;;;;;;;16.03;2.30;;;11.10;99.90;;;;;;7284796;19;20692;-79
2023/04/12 05:54:32;;;;;;;11.83;1.97;;;11.20;99.90;;;;;;7285927;19;20221;-79
2023/04/12 05:56:58;;;;;;;12.17;2.03;;;11.30;99.90;;;;;;7306324;19;20660;-80
2023/04/12 05:59:24;;;;;;;10.57;2.10;;;11.20;99.90;;;;;;7283313;19;20197;-81
2023/04/12 06:01:50;;;;;;;13.63;2.40;;;11.10;99.90;;;;;;7285238;19;20220;-81
2023/04/12 06:04:18;;;;;;;11.10;2.00;;;11.20;99.90;;;;;;7284221;19;20760;-81
2023/04/12 06:06:44;;;;;;;9.00;2.00;;;11.20;99.90;;;;;;7282998;19;20270;-81
2023/04/12 06:09:10;;;;;;;13.97;2.53;;;11.20;99.90;;;;;;7284225;19;20216;-80
2023/04/12 06:11:37;;;;;;;12.97;2.70;;;11.20;99.90;;;;;;7283412;19;20186;-79
2023/04/12 06:14:03;;;;;;;12.30;2.27;;;11.30;99.90;;;;;;7283666;19;20190;-78
2023/04/12 06:16:29;;;;;;;16.63;3.10;;;11.30;99.90;;;;;;7305994;19;20208;-79
2023/04/12 06:18:55;;;;;;;11.87;2.80;;;11.50;99.90;;;;;;7284663;19;20209;-79
2023/04/12 06:21:21;;;;;;;11.60;2.03;;;11.60;99.90;;;;;;7286273;19;21022;-80
2023/04/12 06:23:47;;;;;;;12.20;2.43;;;11.60;99.90;;;;;;7284272;19;20190;-79
2023/04/12 06:26:12;;;;;;;13.17;2.37;;;11.50;99.90;;;;;;7284889;19;20265;-80
2023/04/12 06:28:38;;;;;;;12.87;2.20;;;11.40;99.90;;;;;;7283224;19;20197;-79
2023/04/12 06:31:04;;;;;;;12.13;2.57;;;11.30;99.90;;;;;;7282652;19;20182;-79
2023/04/12 06:33:35;;;;;;;14.63;2.20;;;11.00;99.90;;;;;;7282334;19;20199;-79
2023/04/12 06:36:04;;;;;;;12.70;1.90;;;10.90;99.90;;;;;;7284122;19;20186;-79
2023/04/12 06:38:30;;;;;;;9.37;1.67;;;10.90;99.90;;;;;;7304234;19;20188;-80
2023/04/12 06:40:56;;;;;;;12.23;2.10;;;11.00;99.90;;;;;;7283819;19;20185;-82
2023/04/12 06:43:21;;;;;;;12.20;2.00;;;11.10;99.90;;;;;;7284110;19;20548;-81
2023/04/12 06:45:51;;;;;;;14.30;2.00;;;11.20;99.90;;;;;;7284204;19;20189;-81
2023/04/12 06:48:16;;;;;;;10.57;1.87;;;11.40;99.90;;;;;;7282846;19;20189;-81
2023/04/12 06:50:43;;;;;;;11.97;2.00;;;11.40;99.90;;;;;;7282805;19;20661;-80
2023/04/12 06:53:09;;;;;;;14.23;2.07;;;11.40;99.90;;;;;;7285013;19;20220;-78
2023/04/12 06:55:35;;;;;;;14.47;1.93;;;11.50;99.90;;;;;;7282278;19;20189;-78
2023/04/12 06:58:01;;;;;;;15.60;2.33;;;11.30;99.90;;;;;;7304441;19;20212;-78
2023/04/12 07:00:26;;;;;;;12.33;2.07;;;11.40;99.90;;;;;;7292599;19;20204;-78
2023/04/12 07:02:52;;;;;;;13.27;2.00;;;11.40;99.90;;;;;;7281618;19;20251;-78
2023/04/12 07:05:18;;;;;;;14.03;1.90;;;11.30;99.90;;;;;;7281987;19;20193;-78
2023/04/12 07:07:44;;;;;;;11.50;2.10;;;11.50;99.90;;;;;;7283546;19;20190;-78
2023/04/12 07:10:10;;;;;;;13.10;2.00;;;11.50;99.90;;;;;;7281341;19;20181;-78
2023/04/12 07:12:35;;;;;;;9.97;2.00;;;11.70;99.90;;;;;;7282054;19;20214;-78
2023/04/12 07:15:01;;;;;;;11.67;2.00;;;11.80;99.90;;;;;;7297326;19;20190;-78
2023/04/12 07:17:27;;;;;;;12.97;2.47;;;11.90;99.90;;;;;;7297489;19;20186;-78
2023/04/12 07:19:53;;;;;;;14.40;2.20;;;12.10;99.90;;;;;;7282866;19;20201;-78
2023/04/12 07:22:19;;;;;;;12.97;2.07;;;12.30;99.90;;;;;;7282746;19;20184;-78
2023/04/12 07:24:45;;;;;;;12.10;2.30;;;12.30;99.90;;;;;;7282577;19;20195;-78
2023/04/12 07:27:11;;;;;;;14.33;2.23;;;12.40;99.90;;;;;;7282114;19;20770;-78
2023/04/12 07:29:36;;;;;;;14.43;2.27;;;12.70;99.90;;;;;;7283219;19;20634;-78
2023/04/12 07:32:03;;;;;;;16.77;2.37;;;12.80;99.90;;;;;;7286082;19;20240;-78
2023/04/12 07:34:29;;;;;;;12.30;2.43;;;12.90;99.90;;;;;;7305223;19;20692;-79
2023/04/12 07:36:55;;;;;;;12.10;2.27;;;13.10;99.90;;;;;;7283533;19;20184;-81
2023/04/12 07:39:21;;;;;;;16.20;2.07;;;13.40;99.90;;;;;;7283664;19;20740;-79
2023/04/12 07:41:48;;;;;;;11.37;2.13;;;13.50;99.90;;;;;;7280216;19;20189;-79
2023/04/12 07:44:14;;;;;;;15.10;2.30;;;13.60;99.90;;;;;;7283181;19;20645;-80
2023/04/12 07:46:40;;;;;;;13.03;1.90;;;13.70;99.90;;;;;;7281670;19;20187;-80
2023/04/12 07:49:07;;;;;;;14.10;2.07;;;13.80;99.90;;;;;;7287627;19;20785;-79
2023/04/12 07:51:33;;;;;;;13.37;2.10;;;13.70;99.90;;;;;;7289799;19;20663;-79
2023/04/12 07:53:58;;;;;;;15.77;2.37;;;13.60;99.90;;;;;;7312146;19;20196;-79
2023/04/12 07:56:24;;;;;;;10.37;2.33;;;13.50;99.90;;;;;;7287689;19;20184;-78
2023/04/12 07:58:50;;;;;;;12.43;2.50;;;13.40;99.90;;;;;;7288925;19;20268;-78
2023/04/12 08:01:15;;;;;;;12.50;2.33;;;13.20;99.90;;;;;;7288948;19;20537;-78
2023/04/12 08:03:41;;;;;;;12.97;2.50;;;13.20;99.90;;;;;;7287686;19;20186;-78
2023/04/12 08:06:07;;;;;;;12.57;2.30;;;13.20;99.90;;;;;;7288279;19;20308;-78
2023/04/12 08:08:33;;;;;;;11.13;2.80;;;13.20;99.90;;;;;;7288257;19;20663;-78
2023/04/12 08:11:01;;;;;;;13.73;2.80;;;14.30;99.90;;;;;;7309418;19;20563;-79
2023/04/12 08:13:27;;;;;;;13.07;2.63;;;16.50;99.90;;;;;;7288147;19;20275;-79
2023/04/12 08:15:53;;;;;;;15.33;2.57;;;18.60;99.90;;;;;;7288216;19;20207;-79
2023/04/12 08:18:18;;;;;;;12.27;2.30;;;19.40;99.90;;;;;;7287673;19;20197;-76
2023/04/12 08:20:44;;;;;;;12.50;2.80;;;20.20;99.90;;;;;;7287533;19;21815;-76
2023/04/12 08:23:10;;;;;;;11.93;2.00;;;20.30;99.90;;;;;;7286072;19;20201;-76
2023/04/12 08:25:37;;;;;;;10.33;2.20;;;19.20;99.90;;;;;;7286817;19;20211;-76
2023/04/12 08:28:03;;;;;;;11.87;2.00;;;18.70;99.90;;;;;;7287416;19;20192;-77
2023/04/12 08:30:29;;;;;;;9.33;2.20;;;20.70;99.90;;;;;;7309229;19;20189;-77
2023/04/12 08:32:55;;;;;;;10.13;2.10;;;21.40;99.90;;;;;;7285297;19;20188;-77
2023/04/12 08:35:21;;;;;;;9.53;2.30;;;21.50;99.90;;;;;;7287175;19;20269;-77
2023/04/12 08:37:47;;;;;;;10.30;1.80;;;22.10;99.90;;;;;;7285672;19;20201;-76
2023/04/12 08:40:14;;;;;;;9.47;1.90;;;21.10;99.90;;;;;;7286187;19;20196;-76
2023/04/12 08:42:40;;;;;;;12.77;2.33;;;21.70;99.90;;;;;;7285154;19;20572;-77
2023/04/12 08:45:12;;;;;;;9.80;1.80;;;22.50;99.90;;;;;;7286442;19;20251;-77
2023/04/12 08:47:40;;;;;;;12.73;2.07;;;21.60;99.90;;;;;;7285846;19;20199;-76
2023/04/12 08:50:11;;;;;;;13.90;2.07;;;21.60;99.90;;;;;;7285921;19;20215;-76
2023/04/12 08:52:38;;;;;;;11.87;1.93;;;21.30;99.90;;;;;;7284681;19;20234;-76
2023/04/12 08:55:07;;;;;;;12.27;1.60;;;20.70;99.90;;;;;;7285201;19;20223;-76
2023/04/12 08:57:40;;;;;;;12.57;2.00;;;20.20;99.90;;;;;;7284779;19;20200;-76
2023/04/12 09:00:08;;;;;;;12.43;1.80;;;20.00;99.90;;;;;;7286750;19;20208;-76
2023/04/12 09:02:37;;;;;;;15.07;2.10;;;18.70;99.90;;;;;;7284233;19;20607;-76
2023/04/12 09:05:03;;;;;;;14.07;2.50;;;17.70;99.90;;;;;;7289047;19;20660;-76
2023/04/12 09:07:29;;;;;;;14.10;1.97;;;16.80;99.90;;;;;;7307519;19;20264;-76
2023/04/12 09:09:56;;;;;;;13.00;2.00;;;16.30;99.90;;;;;;7286087;19;20203;-76
2023/04/12 09:12:23;;;;;;;15.77;2.07;;;15.80;99.90;;;;;;7285415;19;20188;-76
2023/04/12 09:15:07;;;;;;;12.93;1.87;;;16.10;99.90;;;;;;7285907;19;20194;-76
2023/04/12 09:17:35;;;;;;;11.63;1.90;;;16.00;99.90;;;;;;7265980;19;20286;-76
2023/04/12 09:20:03;;;;;;;18.23;2.23;;;15.50;99.90;;;;;;7306394;19;20205;-76
2023/04/12 09:22:38;;;;;;;19.13;2.10;;;14.90;99.90;;;;;;7306026;19;20194;-76
2023/04/12 09:25:04;;;;;;;14.07;2.40;;;14.90;99.90;;;;;;7263339;19;20225;-76
2023/04/12 09:27:45;;;;;;;11.93;2.30;;;15.10;99.90;;;;;;7308526;19;20190;-76
2023/04/12 09:30:12;;;;;;;12.37;2.30;;;14.90;99.90;;;;;;7182987;19;2004588;-76
2023/04/12 09:32:37;;;;;;;18.57;2.90;;;14.80;99.90;;;;;;7284761;19;20185;-76
2023/04/12 09:35:04;;;;;;;13.93;2.00;;;14.90;99.90;;;;;;7283841;19;20209;-76
2023/04/12 09:37:30;;;;;;;14.27;2.20;;;14.60;99.90;;;;;;7306354;19;20187;-76
2023/04/12 09:40:00;;;;;;;12.90;2.43;;;14.60;99.90;;;;;;7286597;19;20208;-75
2023/04/12 09:42:27;;;;;;;10.57;2.10;;;14.40;99.90;;;;;;7283971;19;20192;-76
2023/04/12 09:44:53;;;;;;;10.67;2.20;;;14.40;99.90;;;;;;7285913;19;20186;-76
2023/04/12 09:47:20;;;;;;;10.83;1.83;;;14.50;99.90;;;;;;7281682;19;20939;-77
2023/04/12 09:49:45;;;;;;;14.37;2.57;;;14.80;99.90;;;;;;7283794;19;20208;-76
2023/04/12 09:52:13;;;;;;;12.50;2.00;;;15.10;99.90;;;;;;7283320;19;20257;-76
2023/04/12 09:54:43;;;;;;;10.50;2.23;;;15.30;99.90;;;;;;7284290;19;20193;-76
2023/04/12 09:57:10;;;;;;;10.23;2.13;;;15.10;99.90;;;;;;7284457;19;20668;-76
2023/04/12 09:59:40;;;;;;;12.83;2.07;;;15.20;99.90;;;;;;7285091;19;20197;-76
2023/04/12 10:02:12;;;;;;;11.00;2.83;;;15.60;99.90;;;;;;7284750;19;20192;-76
2023/04/12 10:04:39;;;;;;;13.47;2.60;;;15.90;99.90;;;;;;7284620;19;20549;-76
2023/04/12 10:07:05;;;;;;;11.30;2.50;;;16.50;99.90;;;;;;7282726;19;20183;-77
2023/04/12 10:09:33;;;;;;;14.07;2.63;;;17.20;99.90;;;;;;7301409;19;20221;-77
2023/04/12 10:12:02;;;;;;;11.30;2.30;;;17.00;99.90;;;;;;7304139;19;20191;-76
2023/04/12 10:14:28;;;;;;;10.00;2.33;;;16.90;99.90;;;;;;7283296;19;20192;-77
2023/04/12 10:16:59;;;;;;;9.07;2.20;;;16.90;99.90;;;;;;7281476;19;20390;-77
2023/04/12 10:19:27;;;;;;;12.77;2.53;;;16.70;99.90;;;;;;7283310;19;20195;-76
2023/04/12 10:21:54;;;;;;;17.03;2.43;;;16.00;99.90;;;;;;7283054;19;20287;-77
2023/04/12 10:24:22;;;;;;;14.50;2.40;;;15.20;99.90;;;;;;7281753;19;20193;-76
2023/04/12 10:26:49;;;;;;;19.03;2.93;;;14.90;99.90;;;;;;7282617;19;20189;-77
2023/04/12 10:29:33;;;;;;;16.47;3.47;;;14.90;99.90;;;;;;7284221;19;20623;-76
2023/04/12 10:32:19;;;;;;;17.97;3.30;;;14.70;99.90;;;;;;7282685;19;20194;-77
2023/04/12 10:34:53;;;;;;;15.30;3.23;;;14.70;99.90;;;;;;7182366;19;2004350;-77
2023/04/12 10:37:19;;;;;;;19.23;3.93;;;14.90;99.90;;;;;;7283811;19;20205;-77
2023/04/12 10:39:52;;;;;;;16.63;3.30;;;15.30;99.90;;;;;;7284731;19;20191;-77
2023/04/12 10:42:22;;;;;;;14.63;2.70;;;15.70;99.90;;;;;;7283972;19;20197;-76
2023/04/12 10:44:50;;;;;;;15.33;2.53;;;16.10;99.90;;;;;;7288980;19;20202;-76
2023/04/12 10:47:48;;;;;;;14.70;2.70;;;16.60;99.90;;;;;;7286465;19;20210;-75
2023/04/12 10:50:31;;;;;;;11.73;2.60;;;15.80;99.90;;;;;;7180270;19;2004717;-77
2023/04/12 10:53:11;;;;;;;17.50;2.83;;;15.60;99.90;;;;;;7283323;19;20684;-77
2023/04/12 10:55:38;;;;;;;13.53;2.73;;;14.70;99.90;;;;;;7179856;19;2005087;-76
2023/04/12 10:58:04;;;;;;;14.57;2.73;;;14.70;99.90;;;;;;7282056;19;20295;-76
2023/04/12 11:00:57;;;;;;;10.93;2.63;;;14.90;99.90;;;;;;7304416;19;20185;-78
2023/04/12 11:03:27;;;;;;;14.33;2.70;;;15.10;99.90;;;;;;7177738;19;2004395;-76
2023/04/12 11:05:57;;;;;;;12.70;2.50;;;15.00;99.90;;;;;;7280474;19;20212;-76
2023/04/12 11:08:42;;;;;;;13.63;2.30;;;15.20;99.90;;;;;;7178708;19;2004630;-77
2023/04/12 11:11:32;;;;;;;10.50;2.10;;;15.60;99.90;;;;;;7283181;19;20673;-77
2023/04/12 11:13:58;;;;;;;11.73;2.30;;;16.20;99.90;;;;;;7283544;19;20196;-77
2023/04/12 11:16:24;;;;;;;15.97;2.37;;;16.70;99.90;;;;;;7282408;19;20199;-78
2023/04/12 11:18:50;;;;;;;10.17;2.20;;;17.30;99.90;;;;;;7281328;19;20244;-77
2023/04/12 11:21:17;;;;;;;9.00;2.00;;;17.40;99.90;;;;;;7282062;19;20657;-79
2023/04/12 11:23:43;;;;;;;11.50;2.23;;;18.00;99.90;;;;;;7280934;19;20648;-76
2023/04/12 11:26:09;;;;;;;10.17;1.90;;;19.20;99.90;;;;;;7288196;19;20195;-76
2023/04/12 11:28:35;;;;;;;12.67;2.17;;;20.40;99.90;;;;;;7288816;19;20202;-76
2023/04/12 11:31:02;;;;;;;12.20;2.23;;;21.50;99.90;;;;;;7309874;19;20181;-77
2023/04/12 11:33:37;;;;;;;10.47;2.10;;;21.30;99.90;;;;;;7289164;19;20567;-77
2023/04/12 11:36:08;;;;;;;14.93;2.50;;;20.80;99.90;;;;;;7278307;19;20226;-76
2023/04/12 11:38:36;;;;;;;10.60;1.77;;;20.00;99.90;;;;;;7289599;19;20210;-77
2023/04/12 11:41:03;;;;;;;9.27;1.50;;;18.60;99.90;;;;;;7310592;19;20219;-76
2023/04/12 11:43:29;;;;;;;9.53;2.00;;;16.10;99.90;;;;;;7288751;19;20196;-76
2023/04/12 11:45:59;;;;;;;12.93;2.00;;;14.00;99.90;;;;;;7287315;19;20194;-76
2023/04/12 11:48:26;;;;;;;13.93;2.17;;;13.40;99.90;;;;;;7288694;19;20197;-77
2023/04/12 11:50:52;;;;;;;13.20;2.00;;;13.30;99.90;;;;;;7286582;19;20202;-76
2023/04/12 11:53:19;;;;;;;14.40;1.80;;;12.90;99.90;;;;;;7287345;19;20550;-77
2023/04/12 11:55:49;;;;;;;8.43;1.60;;;12.70;99.90;;;;;;7289105;19;20190;-77
2023/04/12 11:58:16;;;;;;;13.40;2.27;;;12.80;99.90;;;;;;7288043;19;20208;-77
2023/04/12 12:00:44;;;;;;;8.77;2.07;;;12.90;99.90;;;;;;7287599;19;20193;-77
2023/04/12 12:03:11;;;;;;;16.03;2.30;;;13.00;99.90;;;;;;7286907;19;20195;-77
2023/04/12 12:05:39;;;;;;;8.77;1.83;;;12.90;99.90;;;;;;7288150;19;20191;-77
2023/04/12 12:08:06;;;;;;;11.13;2.27;;;13.20;99.90;;;;;;7287258;19;20193;-77
2023/04/12 12:10:37;;;;;;;11.27;2.30;;;13.50;99.90;;;;;;7309280;19;20193;-77
2023/04/12 12:13:07;;;;;;;8.47;1.50;;;13.50;99.90;;;;;;7284848;19;20266;-76
2023/04/12 12:15:33;;;;;;;9.07;1.90;;;13.40;99.90;;;;;;7297967;19;20220;-77
2023/04/12 12:18:01;;;;;;;8.07;1.70;;;13.10;99.90;;;;;;7306990;19;20188;-77
2023/04/12 12:20:26;;;;;;;9.50;1.50;;;12.60;99.90;;;;;;7287186;19;20667;-77
2023/04/12 12:22:53;;;;;;;8.70;1.50;;;12.30;99.90;;;;;;7287747;19;20226;-77
2023/04/12 12:25:19;;;;;;;10.37;1.60;;;12.10;99.90;;;;;;7286044;19;20199;-76
2023/04/12 12:27:49;;;;;;;9.83;1.60;;;12.00;99.90;;;;;;7287944;19;20194;-77
2023/04/12 12:30:20;;;;;;;8.80;1.30;;;12.10;99.90;;;;;;7286580;19;20236;-77
2023/04/12 12:32:49;;;;;;;8.90;1.50;;;12.30;99.90;;;;;;7287844;19;20560;-77
2023/04/12 12:35:15;;;;;;;10.00;1.30;;;12.50;99.90;;;;;;7285040;19;20212;-77
2023/04/12 12:37:51;;;;;;;6.63;1.60;;;12.70;99.90;;;;;;7285800;19;20196;-77
2023/04/12 12:40:20;;;;;;;8.63;1.23;;;13.00;99.90;;;;;;7286064;19;20199;-77
2023/04/12 12:42:47;;;;;;;5.23;1.10;;;13.60;99.90;;;;;;7285393;19;20187;-77
2023/04/12 12:45:14;;;;;;;5.87;1.20;;;13.70;99.90;;;;;;7287003;19;20192;-77
2023/04/12 12:47:54;;;;;;;6.70;1.03;;;13.70;99.90;;;;;;7286609;19;20182;-77
2023/04/12 12:50:27;;;;;;;9.63;1.10;;;13.40;99.90;;;;;;7285401;19;20195;-77
2023/04/12 12:52:54;;;;;;;4.73;1.10;;;13.60;99.90;;;;;;7286200;19;20651;-77
2023/04/12 12:55:21;;;;;;;8.83;1.70;;;13.90;99.90;;;;;;7286237;19;20206;-77
2023/04/12 12:57:48;;;;;;;9.93;1.10;;;14.20;99.90;;;;;;7286139;19;20193;-77